Time;durP1;ratioP1;P1;durP2;ratioP2;P2;SDS_P1;SDS_P2;PMS_P1;PMS_P2;Temp;Humidity;BMP_temperature;BMP_pressure;BME280_temperature;BME280_humidity;BME280_pressure;Samples;Min_cycle;Max_cycle;Signal;HPM_P1;HPM_P2
2023/09/01 00:00:15;;;;;;;0.57;0.57;;;;;14.30;95847.00;;;;5136629;27;20186;-62
2023/09/01 00:02:42;;;;;;;0.80;0.80;;;;;14.20;95848.00;;;;5136483;27;20185;-62
2023/09/01 00:05:10;;;;;;;1.53;1.43;;;;;14.10;95848.00;;;;5136223;27;20683;-62
2023/09/01 00:07:38;;;;;;;0.70;0.70;;;;;14.10;95846.00;;;;5136464;27;20283;-62
2023/09/01 00:10:06;;;;;;;0.83;0.83;;;;;14.10;95838.00;;;;5137023;27;20515;-62
2023/09/01 00:12:35;;;;;;;1.43;1.33;;;;;14.20;95837.00;;;;5136690;27;20209;-62
2023/09/01 00:15:03;;;;;;;0.90;0.90;;;;;14.20;95842.00;;;;5136138;27;20200;-62
2023/09/01 00:17:30;;;;;;;1.10;1.03;;;;;14.30;95854.00;;;;5136183;27;20269;-62
2023/09/01 00:19:57;;;;;;;0.70;0.70;;;;;14.30;95838.00;;;;5136148;27;20259;-62
2023/09/01 00:22:25;;;;;;;0.73;0.73;;;;;14.20;95831.00;;;;5135659;27;20197;-62
2023/09/01 00:24:52;;;;;;;0.80;0.80;;;;;14.30;95834.00;;;;5135224;27;20225;-62
2023/09/01 00:27:20;;;;;;;0.60;0.60;;;;;14.30;95841.00;;;;5136758;27;20331;-62
2023/09/01 00:29:48;;;;;;;1.67;1.53;;;;;14.40;95840.00;;;;5134841;27;20197;-62
2023/09/01 00:32:16;;;;;;;1.10;1.00;;;;;14.50;95843.00;;;;5136678;27;20186;-62
2023/09/01 00:34:43;;;;;;;1.20;1.13;;;;;14.60;95834.00;;;;5136425;27;20193;-62
2023/09/01 00:37:10;;;;;;;0.67;0.67;;;;;14.60;95825.00;;;;5136193;27;20319;-62
2023/09/01 00:39:38;;;;;;;1.33;0.90;;;;;14.40;95831.00;;;;5136244;27;20211;-61
2023/09/01 00:42:05;;;;;;;0.80;0.80;;;;;14.50;95845.00;;;;5136063;27;20189;-62
2023/09/01 00:44:33;;;;;;;1.37;1.27;;;;;14.50;95846.00;;;;5135729;27;20190;-62
2023/09/01 00:47:02;;;;;;;0.73;0.73;;;;;14.50;95846.00;;;;5136030;27;20281;-62
2023/09/01 00:49:29;;;;;;;1.00;0.90;;;;;14.40;95849.00;;;;5136550;27;20193;-61
2023/09/01 00:51:57;;;;;;;1.17;1.17;;;;;14.40;95843.00;;;;5136379;27;20757;-62
2023/09/01 00:54:24;;;;;;;2.83;1.33;;;;;14.50;95840.00;;;;5135969;27;20280;-62
2023/09/01 00:56:55;;;;;;;2.17;1.33;;;;;14.30;95845.00;;;;5135707;27;20255;-61
2023/09/01 00:59:23;;;;;;;14.33;1.33;;;;;14.40;95852.00;;;;5135967;27;20536;-61
2023/09/01 01:01:51;;;;;;;1.73;1.63;;;;;14.50;95842.00;;;;5135265;27;20204;-61
2023/09/01 01:04:21;;;;;;;1.33;1.33;;;;;14.30;95852.00;;;;5135136;27;20598;-62
2023/09/01 01:06:56;;;;;;;1.20;1.20;;;;;14.50;95843.00;;;;5135262;27;20217;-62
2023/09/01 01:09:32;;;;;;;1.23;1.13;;;;;14.40;95838.00;;;;5135273;27;20187;-63
2023/09/01 01:12:07;;;;;;;0.40;0.40;;;;;14.40;95836.00;;;;5135354;27;20173;-62
2023/09/01 01:14:40;;;;;;;0.70;0.70;;;;;14.50;95833.00;;;;5133594;27;20189;-62
2023/09/01 01:17:09;;;;;;;0.90;0.90;;;;;14.60;95829.00;;;;5133717;27;20213;-62
2023/09/01 01:19:50;;;;;;;0.80;0.80;;;;;14.60;95830.00;;;;5135455;27;20193;-62
2023/09/01 01:22:29;;;;;;;0.50;0.50;;;;;14.50;95840.00;;;;5135093;27;20550;-62
2023/09/01 01:24:58;;;;;;;0.50;0.50;;;;;14.60;95840.00;;;;5135411;27;20181;-62
2023/09/01 01:27:25;;;;;;;0.57;0.57;;;;;14.40;95837.00;;;;5134741;27;20221;-62
2023/09/01 01:29:53;;;;;;;0.60;0.60;;;;;14.30;95833.00;;;;5135003;27;20545;-62
2023/09/01 01:32:20;;;;;;;0.70;0.70;;;;;14.40;95837.00;;;;5133633;27;20189;-62
2023/09/01 01:34:54;;;;;;;1.07;1.07;;;;;14.40;95833.00;;;;5135401;27;20193;-62
2023/09/01 01:37:29;;;;;;;0.60;0.60;;;;;14.50;95828.00;;;;5136316;27;20618;-62
2023/09/01 01:40:00;;;;;;;0.80;0.80;;;;;14.60;95824.00;;;;5135712;27;20187;-62
2023/09/01 01:42:32;;;;;;;1.17;0.93;;;;;14.30;95817.00;;;;5135701;27;20536;-62
2023/09/01 01:45:02;;;;;;;0.67;0.67;;;;;14.40;95837.00;;;;5135230;27;20186;-61
2023/09/01 01:47:29;;;;;;;0.80;0.80;;;;;14.40;95830.00;;;;5134655;28;20217;-61
2023/09/01 01:49:57;;;;;;;1.90;1.63;;;;;14.50;95825.00;;;;5134533;28;20489;-61
2023/09/01 01:52:24;;;;;;;0.93;0.93;;;;;14.40;95828.00;;;;5135114;28;20189;-62
2023/09/01 01:54:52;;;;;;;0.80;0.80;;;;;14.40;95818.00;;;;5134743;28;20186;-61
2023/09/01 01:57:20;;;;;;;0.50;0.50;;;;;14.50;95808.00;;;;5134563;28;20208;-62
2023/09/01 01:59:48;;;;;;;0.60;0.60;;;;;14.50;95825.00;;;;5133373;28;20197;-62
2023/09/01 02:02:16;;;;;;;0.60;0.60;;;;;14.40;95830.00;;;;5134911;28;20262;-61
2023/09/01 02:04:43;;;;;;;0.60;0.60;;;;;14.50;95825.00;;;;5134543;28;20264;-62
2023/09/01 02:07:10;;;;;;;0.50;0.50;;;;;14.50;95826.00;;;;5134468;28;20224;-61
2023/09/01 02:09:38;;;;;;;0.87;0.87;;;;;14.50;95829.00;;;;5135721;28;20190;-62
2023/09/01 02:12:06;;;;;;;0.57;0.57;;;;;14.60;95828.00;;;;5135553;28;20209;-62
2023/09/01 02:14:36;;;;;;;0.90;0.90;;;;;14.70;95826.00;;;;5135237;28;20197;-62
2023/09/01 02:17:05;;;;;;;0.43;0.43;;;;;14.70;95835.00;;;;5133649;28;20213;-62
2023/09/01 02:19:32;;;;;;;0.70;0.70;;;;;14.70;95837.00;;;;5134719;28;20221;-61
2023/09/01 02:22:00;;;;;;;0.70;0.70;;;;;14.70;95833.00;;;;5134595;28;20193;-61
2023/09/01 02:24:29;;;;;;;0.90;0.90;;;;;14.60;95833.00;;;;5134436;28;20197;-62
2023/09/01 02:26:57;;;;;;;0.80;0.80;;;;;14.60;95840.00;;;;5134111;28;20213;-62
2023/09/01 02:29:24;;;;;;;10.73;1.03;;;;;14.70;95840.00;;;;5134191;28;20246;-61
2023/09/01 02:31:54;;;;;;;3.23;1.30;;;;;14.70;95829.00;;;;5134429;28;20197;-62
2023/09/01 02:34:22;;;;;;;1.83;0.87;;;;;14.70;95830.00;;;;5134666;28;20288;-62
2023/09/01 02:36:49;;;;;;;0.77;0.77;;;;;14.60;95832.00;;;;5134199;28;20213;-62
2023/09/01 02:39:17;;;;;;;0.60;0.60;;;;;14.60;95837.00;;;;5134170;28;20251;-62
2023/09/01 02:41:45;;;;;;;0.50;0.50;;;;;14.70;95829.00;;;;5134363;28;20627;-62
2023/09/01 02:44:12;;;;;;;0.60;0.60;;;;;14.70;95820.00;;;;5135521;27;20246;-62
2023/09/01 02:46:40;;;;;;;0.90;0.90;;;;;14.60;95826.00;;;;5136545;27;20221;-62
2023/09/01 02:49:09;;;;;;;1.17;1.17;;;;;14.70;95824.00;;;;5137983;27;20193;-62
2023/09/01 02:51:39;;;;;;;0.63;0.63;;;;;14.70;95827.00;;;;5138071;27;20170;-62
2023/09/01 02:54:07;;;;;;;0.90;0.90;;;;;14.70;95824.00;;;;5137775;27;20189;-62
2023/09/01 02:56:34;;;;;;;0.90;0.90;;;;;14.60;95823.00;;;;5137807;27;20205;-63
2023/09/01 02:59:02;;;;;;;1.83;1.00;;;;;14.70;95834.00;;;;5137852;27;20190;-62
2023/09/01 03:01:30;;;;;;;1.07;1.07;;;;;14.60;95841.00;;;;5137810;27;20198;-62
2023/09/01 03:03:58;;;;;;;0.80;0.80;;;;;14.60;95834.00;;;;5137578;27;20191;-62
2023/09/01 03:06:26;;;;;;;0.80;0.80;;;;;14.50;95827.00;;;;5137363;27;20213;-62
2023/09/01 03:08:54;;;;;;;0.80;0.80;;;;;14.50;95834.00;;;;5136490;27;20197;-62
2023/09/01 03:11:21;;;;;;;0.70;0.70;;;;;14.40;95830.00;;;;5137679;27;20216;-62
2023/09/01 03:13:48;;;;;;;0.70;0.70;;;;;14.50;95837.00;;;;5137792;27;20193;-61
2023/09/01 03:16:16;;;;;;;0.60;0.60;;;;;14.60;95836.00;;;;5137380;27;20213;-63
2023/09/01 03:18:43;;;;;;;0.70;0.70;;;;;14.50;95841.00;;;;5137401;27;20194;-62
2023/09/01 03:21:11;;;;;;;0.60;0.60;;;;;14.50;95837.00;;;;5137860;27;20189;-62
2023/09/01 03:23:41;;;;;;;0.57;0.57;;;;;14.40;95834.00;;;;5137881;27;20197;-62
2023/09/01 03:26:08;;;;;;;0.60;0.60;;;;;14.40;95843.00;;;;5137413;27;20205;-62
2023/09/01 03:28:36;;;;;;;0.60;0.60;;;;;14.40;95844.00;;;;5137387;27;20182;-62
2023/09/01 03:31:10;;;;;;;0.70;0.70;;;;;14.50;95838.00;;;;5137143;27;20189;-61
2023/09/01 03:33:37;;;;;;;5.40;1.37;;;;;14.60;95838.00;;;;5137595;27;20261;-62
2023/09/01 03:36:07;;;;;;;0.83;0.83;;;;;14.50;95833.00;;;;5136798;27;20237;-63
2023/09/01 03:38:35;;;;;;;0.60;0.60;;;;;14.60;95835.00;;;;5137241;27;20188;-63
2023/09/01 03:41:04;;;;;;;0.57;0.57;;;;;14.60;95829.00;;;;5135679;27;20197;-62
2023/09/01 03:43:31;;;;;;;0.73;0.73;;;;;14.60;95836.00;;;;5137112;27;20225;-62
2023/09/01 03:45:59;;;;;;;0.70;0.70;;;;;14.60;95828.00;;;;5137283;27;20537;-63
2023/09/01 03:48:26;;;;;;;0.60;0.60;;;;;14.50;95834.00;;;;5136724;27;20206;-63
2023/09/01 03:51:10;;;;;;;0.50;0.50;;;;;14.50;95830.00;;;;5136741;27;20621;-63
2023/09/01 03:53:38;;;;;;;0.70;0.70;;;;;14.50;95832.00;;;;5136506;27;20185;-63
2023/09/01 03:56:09;;;;;;;0.60;0.60;;;;;14.50;95830.00;;;;5133791;27;20213;-62
2023/09/01 03:58:37;;;;;;;0.50;0.50;;;;;14.60;95843.00;;;;5136462;27;20170;-63
2023/09/01 04:01:08;;;;;;;0.67;0.67;;;;;14.50;95839.00;;;;5136510;27;20542;-63
2023/09/01 04:03:35;;;;;;;6.63;1.03;;;;;14.40;95846.00;;;;5136371;27;20178;-62
2023/09/01 04:06:03;;;;;;;0.80;0.80;;;;;14.50;95842.00;;;;5136043;27;20229;-63
2023/09/01 04:08:30;;;;;;;0.57;0.57;;;;;14.50;95834.00;;;;5136378;27;20241;-62
2023/09/01 04:10:58;;;;;;;1.27;1.17;;;;;14.60;95843.00;;;;5136145;27;20194;-62
2023/09/01 04:13:27;;;;;;;0.60;0.60;;;;;14.50;95840.00;;;;5134850;27;20653;-62
2023/09/01 04:15:55;;;;;;;0.63;0.63;;;;;14.50;95846.00;;;;5136128;27;20219;-63
2023/09/01 04:18:23;;;;;;;0.73;0.70;;;;;14.70;95844.00;;;;5136550;27;20197;-63
2023/09/01 04:20:51;;;;;;;0.57;0.57;;;;;14.70;95844.00;;;;5136671;27;20242;-63
2023/09/01 04:23:19;;;;;;;1.00;0.97;;;;;14.70;95834.00;;;;5136095;27;20192;-63
2023/09/01 04:25:47;;;;;;;1.03;1.03;;;;;14.70;95841.00;;;;5136082;27;20189;-63
2023/09/01 04:28:15;;;;;;;0.60;0.60;;;;;14.90;95842.00;;;;5136200;27;20231;-63
2023/09/01 04:30:44;;;;;;;0.70;0.70;;;;;14.90;95840.00;;;;5134712;27;20212;-63
2023/09/01 04:33:12;;;;;;;0.60;0.60;;;;;14.90;95838.00;;;;5136161;27;20668;-62
2023/09/01 04:35:40;;;;;;;0.83;0.83;;;;;14.80;95839.00;;;;5136076;27;20203;-63
2023/09/01 04:38:07;;;;;;;0.60;0.60;;;;;14.90;95851.00;;;;5136307;27;20667;-62
2023/09/01 04:40:34;;;;;;;0.70;0.70;;;;;14.80;95843.00;;;;5136019;27;20196;-63
2023/09/01 04:43:02;;;;;;;0.70;0.70;;;;;14.80;95841.00;;;;5135694;27;20192;-62
2023/09/01 04:45:29;;;;;;;0.90;0.90;;;;;14.80;95844.00;;;;5135671;27;20208;-62
2023/09/01 04:47:58;;;;;;;0.67;0.67;;;;;14.80;95847.00;;;;5135993;27;20221;-62
2023/09/01 04:50:25;;;;;;;12.63;1.10;;;;;14.90;95841.00;;;;5136802;27;20205;-62
2023/09/01 04:52:53;;;;;;;0.90;0.90;;;;;14.80;95859.00;;;;5136141;27;20197;-62
2023/09/01 04:55:21;;;;;;;1.13;1.07;;;;;14.80;95858.00;;;;5135572;27;20193;-62
2023/09/01 04:57:49;;;;;;;0.70;0.70;;;;;14.80;95846.00;;;;5135701;27;20205;-63
2023/09/01 05:00:17;;;;;;;0.63;0.63;;;;;14.80;95856.00;;;;5135481;27;20268;-62
2023/09/01 05:02:45;;;;;;;0.67;0.67;;;;;15.00;95857.00;;;;5135311;27;20526;-61
2023/09/01 05:05:15;;;;;;;0.60;0.60;;;;;14.80;95850.00;;;;5135352;27;20201;-63
2023/09/01 05:07:42;;;;;;;0.77;0.77;;;;;14.90;95855.00;;;;5133578;27;20213;-63
2023/09/01 05:10:10;;;;;;;0.50;0.50;;;;;14.90;95869.00;;;;5133853;27;20228;-62
2023/09/01 05:12:38;;;;;;;0.53;0.53;;;;;14.80;95866.00;;;;5135455;27;20189;-62
2023/09/01 05:15:06;;;;;;;0.87;0.87;;;;;14.90;95865.00;;;;5135387;27;20210;-62
2023/09/01 05:17:34;;;;;;;0.60;0.60;;;;;14.80;95869.00;;;;5135262;27;20590;-62
2023/09/01 05:20:01;;;;;;;1.03;0.83;;;;;14.70;95867.00;;;;5135073;27;20196;-63
2023/09/01 05:22:30;;;;;;;0.70;0.70;;;;;14.70;95869.00;;;;5135080;27;20285;-62
2023/09/01 05:24:57;;;;;;;0.80;0.80;;;;;14.80;95870.00;;;;5135377;27;20194;-62
2023/09/01 05:27:25;;;;;;;0.50;0.50;;;;;14.80;95880.00;;;;5134907;27;20212;-62
2023/09/01 05:29:52;;;;;;;1.23;1.20;;;;;14.80;95876.00;;;;5135033;27;20576;-62
2023/09/01 05:32:21;;;;;;;0.60;0.60;;;;;15.00;95874.00;;;;5134787;27;20193;-62
2023/09/01 05:34:48;;;;;;;0.80;0.80;;;;;15.00;95872.00;;;;5133762;27;20200;-62
2023/09/01 05:37:16;;;;;;;0.60;0.60;;;;;14.90;95878.00;;;;5134509;27;20216;-62
2023/09/01 05:39:45;;;;;;;0.90;0.90;;;;;14.90;95891.00;;;;5133480;27;20190;-62
2023/09/01 05:42:14;;;;;;;0.93;0.93;;;;;14.80;95886.00;;;;5134510;27;20217;-63
2023/09/01 05:44:42;;;;;;;0.60;0.60;;;;;14.70;95902.00;;;;5134153;27;20238;-62
2023/09/01 05:47:09;;;;;;;0.70;0.70;;;;;14.70;95891.00;;;;5134366;27;20213;-62
2023/09/01 05:49:36;;;;;;;1.30;0.83;;;;;14.80;95888.00;;;;5134865;27;20189;-62
2023/09/01 05:52:04;;;;;;;1.67;1.27;;;;;14.90;95897.00;;;;5134715;28;20181;-62
2023/09/01 05:54:32;;;;;;;0.70;0.70;;;;;14.90;95898.00;;;;5134366;28;20213;-62
2023/09/01 05:57:01;;;;;;;0.83;0.83;;;;;14.90;95872.00;;;;5134232;28;20258;-62
2023/09/01 05:59:29;;;;;;;2.20;1.00;;;;;14.90;95899.00;;;;5134099;28;20193;-62
2023/09/01 06:01:56;;;;;;;0.70;0.70;;;;;15.00;95900.00;;;;5134439;28;20193;-62
2023/09/01 06:04:23;;;;;;;0.80;0.80;;;;;15.00;95902.00;;;;5134449;28;20201;-63
2023/09/01 06:06:52;;;;;;;0.70;0.70;;;;;15.10;95890.00;;;;5134229;28;20213;-63
2023/09/01 06:09:20;;;;;;;1.00;1.00;;;;;15.10;95905.00;;;;5133912;28;20235;-62
2023/09/01 06:11:47;;;;;;;1.13;0.73;;;;;15.10;95912.00;;;;5133963;28;20276;-63
2023/09/01 06:14:16;;;;;;;0.80;0.80;;;;;15.10;95910.00;;;;5134085;28;20196;-62
2023/09/01 06:16:44;;;;;;;0.70;0.70;;;;;15.10;95906.00;;;;5134128;28;20209;-63
2023/09/01 06:19:12;;;;;;;0.60;0.60;;;;;15.20;95902.00;;;;5134868;27;20667;-63
2023/09/01 06:21:42;;;;;;;1.00;0.97;;;;;15.30;95900.00;;;;5138272;27;20190;-63
2023/09/01 06:24:09;;;;;;;0.47;0.47;;;;;15.40;95900.00;;;;5137860;27;20193;-63
2023/09/01 06:26:37;;;;;;;1.07;0.97;;;;;15.20;95904.00;;;;5138115;27;20553;-62
2023/09/01 06:29:05;;;;;;;0.40;0.40;;;;;15.30;95914.00;;;;5137799;27;20672;-62
2023/09/01 06:31:35;;;;;;;0.57;0.57;;;;;15.30;95911.00;;;;5137806;27;20189;-62
2023/09/01 06:34:03;;;;;;;0.50;0.50;;;;;15.20;95916.00;;;;5137800;27;20264;-62
2023/09/01 06:36:30;;;;;;;0.50;0.50;;;;;15.30;95916.00;;;;5138019;27;20290;-63
2023/09/01 06:38:57;;;;;;;0.70;0.70;;;;;15.40;95924.00;;;;5137716;27;20200;-62
2023/09/01 06:41:25;;;;;;;0.50;0.50;;;;;15.40;95926.00;;;;5138147;27;20195;-62
2023/09/01 06:43:56;;;;;;;0.90;0.90;;;;;15.30;95930.00;;;;5137569;27;20245;-62
2023/09/01 06:46:23;;;;;;;0.87;0.87;;;;;15.30;95927.00;;;;5137713;27;20225;-62
2023/09/01 06:48:52;;;;;;;0.60;0.60;;;;;15.40;95930.00;;;;5134324;27;20206;-61
2023/09/01 06:51:19;;;;;;;0.70;0.70;;;;;15.40;95928.00;;;;5134445;27;20194;-63
2023/09/01 06:53:47;;;;;;;0.70;0.70;;;;;15.50;95924.00;;;;5134759;27;20208;-64
2023/09/01 06:56:15;;;;;;;0.60;0.60;;;;;15.50;95928.00;;;;5135066;27;20304;-62
2023/09/01 06:58:42;;;;;;;0.80;0.80;;;;;15.50;95929.00;;;;5134265;27;20197;-62
2023/09/01 07:01:11;;;;;;;0.87;0.63;;;;;15.40;95936.00;;;;5135243;27;20200;-62
2023/09/01 07:03:38;;;;;;;0.50;0.50;;;;;15.50;95929.00;;;;5135833;27;20205;-62
2023/09/01 07:06:07;;;;;;;0.60;0.60;;;;;15.70;95929.00;;;;5135665;27;20221;-62
2023/09/01 07:08:34;;;;;;;0.50;0.50;;;;;15.60;95924.00;;;;5135671;27;20223;-62
2023/09/01 07:11:02;;;;;;;1.47;1.37;;;;;15.80;95922.00;;;;5135531;27;20571;-62
2023/09/01 07:13:30;;;;;;;0.60;0.60;;;;;16.20;95922.00;;;;5134766;27;20551;-62
2023/09/01 07:15:58;;;;;;;0.80;0.80;;;;;16.40;95919.00;;;;5134926;27;20201;-62
2023/09/01 07:18:25;;;;;;;0.67;0.67;;;;;16.30;95923.00;;;;5134827;27;20193;-62
2023/09/01 07:20:57;;;;;;;0.50;0.50;;;;;16.50;95921.00;;;;5134504;27;20196;-62
2023/09/01 07:23:26;;;;;;;0.50;0.50;;;;;16.30;95916.00;;;;5134588;27;20663;-62
2023/09/01 07:25:54;;;;;;;0.90;0.90;;;;;16.20;95929.00;;;;5135220;27;20194;-62
2023/09/01 07:28:22;;;;;;;1.10;1.10;;;;;16.30;95923.00;;;;5134913;27;20223;-62
2023/09/01 07:30:49;;;;;;;0.83;0.83;;;;;16.20;95926.00;;;;5130527;27;20288;-62
2023/09/01 07:33:17;;;;;;;0.67;0.67;;;;;16.30;95931.00;;;;5134939;27;20549;-62
2023/09/01 07:35:49;;;;;;;0.60;0.60;;;;;16.50;95921.00;;;;5133320;27;20621;-62
2023/09/01 07:38:20;;;;;;;0.50;0.50;;;;;16.10;95918.00;;;;5130482;27;20177;-63
2023/09/01 07:40:49;;;;;;;0.70;0.70;;;;;16.20;95916.00;;;;5134815;27;20653;-62
2023/09/01 07:43:17;;;;;;;0.50;0.50;;;;;16.30;95922.00;;;;5130920;27;20201;-62
2023/09/01 07:45:45;;;;;;;0.70;0.70;;;;;16.50;95923.00;;;;5135043;27;20193;-62
2023/09/01 07:48:15;;;;;;;0.60;0.60;;;;;16.80;95930.00;;;;5134220;27;20220;-62
2023/09/01 07:50:42;;;;;;;0.40;0.40;;;;;16.90;95940.00;;;;5135022;27;20552;-62
2023/09/01 07:53:10;;;;;;;0.50;0.50;;;;;16.90;95930.00;;;;5134497;27;20242;-62
2023/09/01 07:55:37;;;;;;;0.40;0.40;;;;;17.00;95936.00;;;;5134442;27;20204;-62
2023/09/01 07:58:06;;;;;;;0.40;0.40;;;;;16.90;95933.00;;;;5133520;27;20213;-62
2023/09/01 08:00:35;;;;;;;0.47;0.47;;;;;16.90;95944.00;;;;5131910;27;20208;-62
2023/09/01 08:03:03;;;;;;;0.40;0.40;;;;;16.90;95947.00;;;;5134297;27;20223;-62
2023/09/01 08:05:30;;;;;;;0.50;0.50;;;;;16.90;95940.00;;;;5133720;27;20329;-62
2023/09/01 08:07:58;;;;;;;0.50;0.50;;;;;16.90;95949.00;;;;5133916;27;20255;-62
2023/09/01 08:10:25;;;;;;;0.57;0.57;;;;;17.00;95943.00;;;;5134360;27;20737;-62
2023/09/01 08:12:53;;;;;;;0.50;0.50;;;;;17.30;95939.00;;;;5134068;27;20536;-62
2023/09/01 08:15:21;;;;;;;0.90;0.90;;;;;17.10;95954.00;;;;5134127;27;21164;-62
2023/09/01 08:17:50;;;;;;;0.40;0.40;;;;;17.20;95954.00;;;;5133341;27;20224;-62
2023/09/01 08:20:17;;;;;;;0.50;0.50;;;;;16.90;95960.00;;;;5128955;27;20189;-62
2023/09/01 08:22:45;;;;;;;0.50;0.50;;;;;17.10;95970.00;;;;5131984;27;20225;-62
2023/09/01 08:25:12;;;;;;;0.50;0.50;;;;;17.00;95975.00;;;;5132786;27;20196;-62
2023/09/01 08:27:39;;;;;;;0.37;0.37;;;;;17.10;95965.00;;;;5133152;27;20213;-62
2023/09/01 08:30:09;;;;;;;0.87;0.87;;;;;17.30;95970.00;;;;5133478;27;20703;-62
2023/09/01 08:32:39;;;;;;;0.40;0.40;;;;;17.40;95974.00;;;;5133737;27;20205;-62
2023/09/01 08:35:07;;;;;;;0.50;0.50;;;;;17.00;95966.00;;;;5132525;27;20185;-66
2023/09/01 08:37:34;;;;;;;0.50;0.50;;;;;17.00;95966.00;;;;5134068;27;20220;-62
2023/09/01 08:40:04;;;;;;;0.57;0.57;;;;;17.30;95962.00;;;;5133344;27;20193;-62
2023/09/01 08:42:33;;;;;;;0.60;0.60;;;;;17.60;95965.00;;;;5132149;27;20288;-62
2023/09/01 08:45:02;;;;;;;0.57;0.57;;;;;17.30;95959.00;;;;5133374;27;20209;-62
2023/09/01 08:47:37;;;;;;;0.40;0.40;;;;;17.60;95957.00;;;;5133969;27;20225;-62
2023/09/01 08:50:08;;;;;;;0.50;0.50;;;;;17.50;95966.00;;;;5128984;27;20213;-62
2023/09/01 08:52:37;;;;;;;0.40;0.40;;;;;17.60;95959.00;;;;5133559;27;20186;-62
2023/09/01 08:55:05;;;;;;;0.50;0.50;;;;;18.10;95963.00;;;;5132961;27;20197;-62
2023/09/01 08:57:33;;;;;;;0.50;0.50;;;;;17.90;95974.00;;;;5132918;27;20245;-62
2023/09/01 09:00:00;;;;;;;0.40;0.40;;;;;18.40;95977.00;;;;5132962;27;20200;-62
2023/09/01 09:02:28;;;;;;;0.50;0.50;;;;;18.30;95976.00;;;;5132090;27;20537;-62
2023/09/01 09:04:56;;;;;;;0.40;0.40;;;;;18.20;95972.00;;;;5131609;27;20201;-62
2023/09/01 09:07:24;;;;;;;0.50;0.50;;;;;18.40;95975.00;;;;5131696;28;20213;-62
2023/09/01 09:09:53;;;;;;;0.50;0.50;;;;;18.40;95964.00;;;;5131582;28;20699;-62
2023/09/01 09:12:23;;;;;;;0.47;0.47;;;;;18.10;95970.00;;;;5132023;28;20201;-62
2023/09/01 09:14:52;;;;;;;0.60;0.60;;;;;18.20;95974.00;;;;5132433;28;20205;-61
2023/09/01 09:17:23;;;;;;;0.80;0.80;;;;;18.20;95966.00;;;;5131344;28;20274;-61
2023/09/01 09:19:56;;;;;;;0.60;0.60;;;;;18.40;95976.00;;;;5131975;28;20511;-61
2023/09/01 09:22:25;;;;;;;0.40;0.40;;;;;18.00;95977.00;;;;5131027;28;20196;-61
2023/09/01 09:24:53;;;;;;;0.40;0.40;;;;;18.20;95987.00;;;;5131565;28;20219;-62
2023/09/01 09:27:22;;;;;;;0.50;0.50;;;;;18.00;95978.00;;;;5131344;28;20226;-62
2023/09/01 09:29:49;;;;;;;0.40;0.40;;;;;17.70;95980.00;;;;5131652;28;20225;-62
2023/09/01 09:32:18;;;;;;;0.50;0.50;;;;;17.90;95979.00;;;;5131633;28;20193;-63
2023/09/01 09:35:08;;;;;;;0.43;0.43;;;;;17.90;95979.00;;;;5131776;28;20204;-62
2023/09/01 09:37:38;;;;;;;0.57;0.57;;;;;18.50;95983.00;;;;5128329;28;20274;-62
2023/09/01 09:40:14;;;;;;;0.50;0.50;;;;;18.20;95979.00;;;;5131622;28;20194;-62
2023/09/01 09:42:43;;;;;;;1.27;0.83;;;;;18.40;95977.00;;;;5130476;28;20197;-62
2023/09/01 09:45:28;;;;;;;0.60;0.60;;;;;18.60;95983.00;;;;5131121;28;20194;-62
2023/09/01 09:47:57;;;;;;;0.80;0.80;;;;;18.20;95988.00;;;;5128740;28;20217;-62
2023/09/01 09:50:25;;;;;;;1.23;0.80;;;;;18.40;95990.00;;;;5130625;28;20227;-62
2023/09/01 09:52:59;;;;;;;0.47;0.47;;;;;18.30;95989.00;;;;5130706;27;20197;-62
2023/09/01 09:55:28;;;;;;;0.47;0.47;;;;;18.70;95988.00;;;;5131283;28;20190;-62
2023/09/01 09:58:04;;;;;;;1.90;0.83;;;;;18.50;95988.00;;;;5131369;28;20232;-62
2023/09/01 10:00:33;;;;;;;0.40;0.40;;;;;18.80;95982.00;;;;5132064;28;20193;-62
2023/09/01 10:03:03;;;;;;;0.50;0.50;;;;;18.80;95991.00;;;;5131219;28;20221;-62
2023/09/01 10:05:33;;;;;;;0.60;0.60;;;;;19.00;95979.00;;;;5094774;28;1067846;-62
2023/09/01 10:08:05;;;;;;;0.50;0.50;;;;;18.90;95979.00;;;;5131755;27;20209;-62
2023/09/01 10:10:34;;;;;;;0.93;0.93;;;;;19.10;95974.00;;;;5132352;28;20262;-62
2023/09/01 10:13:06;;;;;;;0.70;0.70;;;;;19.30;95970.00;;;;5132216;28;20225;-62
2023/09/01 10:15:34;;;;;;;0.40;0.40;;;;;19.50;95963.00;;;;5129208;28;20201;-62
2023/09/01 10:18:04;;;;;;;0.53;0.53;;;;;19.00;95964.00;;;;5131508;28;20349;-62
2023/09/01 10:20:31;;;;;;;0.53;0.53;;;;;19.40;95962.00;;;;5132642;28;20343;-62
2023/09/01 10:23:01;;;;;;;0.60;0.60;;;;;19.50;95977.00;;;;5130520;28;20223;-62
2023/09/01 10:25:31;;;;;;;0.77;0.77;;;;;19.30;95973.00;;;;5129819;28;20193;-62
2023/09/01 10:28:10;;;;;;;0.70;0.70;;;;;19.60;95974.00;;;;5131500;28;20221;-62
2023/09/01 10:30:39;;;;;;;0.50;0.50;;;;;19.60;95971.00;;;;5132057;28;20233;-62
2023/09/01 10:33:11;;;;;;;0.53;0.53;;;;;20.00;95967.00;;;;5130970;28;20636;-62
2023/09/01 10:35:43;;;;;;;0.50;0.50;;;;;19.80;95975.00;;;;5131969;28;20272;-62
2023/09/01 10:38:17;;;;;;;0.63;0.63;;;;;19.90;95971.00;;;;5131723;28;20287;-62
2023/09/01 10:40:48;;;;;;;0.63;0.63;;;;;19.70;95990.00;;;;5132100;28;20752;-63
2023/09/01 10:43:45;;;;;;;0.57;0.57;;;;;19.60;95973.00;;;;5129905;28;20189;-62
2023/09/01 10:46:26;;;;;;;0.50;0.50;;;;;19.80;95963.00;;;;5128579;27;20366;-62
2023/09/01 10:48:55;;;;;;;0.70;0.70;;;;;19.60;95982.00;;;;5131784;28;20213;-62
2023/09/01 10:51:25;;;;;;;0.80;0.80;;;;;19.60;95975.00;;;;5131838;28;20246;-62
2023/09/01 10:53:55;;;;;;;0.63;0.63;;;;;19.60;95970.00;;;;5131962;28;20578;-62
2023/09/01 10:56:24;;;;;;;0.57;0.57;;;;;19.70;95966.00;;;;5132146;28;20213;-62
2023/09/01 10:58:53;;;;;;;0.50;0.50;;;;;20.00;95971.00;;;;5131690;28;20675;-62
2023/09/01 11:01:34;;;;;;;0.83;0.83;;;;;20.10;95967.00;;;;5132103;28;20201;-63
2023/09/01 11:04:28;;;;;;;0.40;0.40;;;;;20.10;95972.00;;;;5130241;28;20194;-63
2023/09/01 11:07:06;;;;;;;0.40;0.40;;;;;20.00;95986.00;;;;5134647;27;20246;-63
2023/09/01 11:09:51;;;;;;;0.70;0.70;;;;;19.70;95975.00;;;;5135350;27;20246;-63
2023/09/01 11:12:26;;;;;;;0.70;0.70;;;;;20.10;95963.00;;;;5133821;27;20193;-62
2023/09/01 11:14:56;;;;;;;0.80;0.80;;;;;20.00;95990.00;;;;5135509;27;20662;-63
2023/09/01 11:17:50;;;;;;;0.50;0.50;;;;;20.20;95975.00;;;;5134942;27;20266;-63
2023/09/01 11:20:20;;;;;;;0.70;0.70;;;;;20.40;95994.00;;;;5134943;27;20188;-63
2023/09/01 11:22:48;;;;;;;0.53;0.53;;;;;20.30;95982.00;;;;5135598;27;20189;-63
2023/09/01 11:25:18;;;;;;;0.60;0.60;;;;;20.20;95959.00;;;;5134772;27;20193;-63
2023/09/01 11:27:50;;;;;;;0.57;0.57;;;;;20.50;95946.00;;;;5129574;27;20217;-63
2023/09/01 11:30:19;;;;;;;0.53;0.53;;;;;20.70;95946.00;;;;5134476;27;20206;-63
2023/09/01 11:32:48;;;;;;;0.60;0.60;;;;;21.30;95958.00;;;;5135394;27;20193;-63
2023/09/01 11:35:26;;;;;;;0.40;0.40;;;;;21.20;95966.00;;;;5135205;27;20199;-63
2023/09/01 11:37:54;;;;;;;0.40;0.40;;;;;21.60;95948.00;;;;5134753;27;20213;-63
2023/09/01 11:40:23;;;;;;;0.40;0.40;;;;;21.50;95942.00;;;;5134797;27;20206;-63
2023/09/01 11:42:53;;;;;;;1.00;1.00;;;;;21.60;95927.00;;;;5134868;27;20205;-63
2023/09/01 11:45:20;;;;;;;0.50;0.50;;;;;22.10;95939.00;;;;5134827;27;20192;-63
2023/09/01 11:47:53;;;;;;;0.45;0.45;;;;;21.50;95942.00;;;;5134550;27;20557;-63
2023/09/01 11:50:20;;;;;;;0.50;0.50;;;;;21.30;95960.00;;;;5134726;27;20201;-63
2023/09/01 11:52:52;;;;;;;0.40;0.40;;;;;22.10;95952.00;;;;5134665;27;20189;-63
2023/09/01 11:55:33;;;;;;;0.50;0.50;;;;;22.00;95927.00;;;;5135347;27;20193;-63
2023/09/01 11:58:02;;;;;;;0.40;0.40;;;;;22.00;95935.00;;;;5130955;27;20216;-63
2023/09/01 12:00:32;;;;;;;0.60;0.60;;;;;21.80;95954.00;;;;5134561;27;20231;-63
2023/09/01 12:03:00;;;;;;;0.40;0.40;;;;;22.80;95934.00;;;;5134279;27;20639;-63
2023/09/01 12:05:32;;;;;;;0.77;0.77;;;;;22.60;95945.00;;;;5134231;27;20201;-62
2023/09/01 12:08:00;;;;;;;0.40;0.40;;;;;21.80;95941.00;;;;5134118;27;20228;-62
2023/09/01 12:10:28;;;;;;;0.47;0.47;;;;;21.80;95959.00;;;;5134096;27;20677;-62
2023/09/01 12:13:14;;;;;;;0.60;0.60;;;;;21.30;95971.00;;;;5133428;27;20213;-62
2023/09/01 12:15:58;;;;;;;0.50;0.50;;;;;21.20;95960.00;;;;5134130;27;20189;-63
2023/09/01 12:18:34;;;;;;;0.60;0.60;;;;;20.90;95988.00;;;;5131825;27;20211;-62
2023/09/01 12:21:02;;;;;;;0.50;0.50;;;;;20.90;95974.00;;;;5133397;27;20185;-62
2023/09/01 12:23:30;;;;;;;0.43;0.43;;;;;21.00;95976.00;;;;5133642;27;20220;-63
2023/09/01 12:25:59;;;;;;;0.40;0.40;;;;;21.10;95993.00;;;;5133275;27;20193;-62
2023/09/01 12:28:30;;;;;;;0.30;0.30;;;;;21.30;95980.00;;;;5134318;27;20625;-62